Aldrich, Missouri
Current Conditions -  °F | °C
As of 12:52 AM on Friday 31 Oct 2014 (Local Time) from KSGF Reporting Station
Clear Clear  
Wind Chill: 51°   Ceiling: Unl
Heat Index: 51°   Visibility: 10mi
Dew Point: 41°   Wind: 13mph
Humidity: 68%   Direction: 320°NW
Pressure: 30.12"   Gusts: NA
Location:  37.55°N, 93.55°W
Report Text: KSGF 310552Z 32011KT 10SM CLR 11/05 A3012 RMK AO2 SLP196 T01060050 10156 20100 401940061 51013
Loading
Personal Weather Stations






























Interactive Weather Map New forecast layout! Learn more

10-Day Weather Forecast

Advertisements
Track Severe Weather on mobile